sensor_id;sensor_type;location;lat;lon;timestamp;P1;P2;P0
76784;PMS7003;66893;44.316;0.092;2023-05-29T00:00:31;7.75;6.50;5.00
76784;PMS7003;66893;44.316;0.092;2023-05-29T00:02:56;5.50;5.50;5.00
76784;PMS7003;66893;44.316;0.092;2023-05-29T00:05:22;6.75;6.75;5.50
76784;PMS7003;66893;44.316;0.092;2023-05-29T00:07:47;8.50;8.50;7.00
76784;PMS7003;66893;44.316;0.092;2023-05-29T00:10:15;9.75;7.00;6.00
76784;PMS7003;66893;44.316;0.092;2023-05-29T00:12:41;8.00;6.25;5.00
76784;PMS7003;66893;44.316;0.092;2023-05-29T00:15:07;6.75;6.75;4.25
76784;PMS7003;66893;44.316;0.092;2023-05-29T00:17:35;9.25;8.50;7.00
76784;PMS7003;66893;44.316;0.092;2023-05-29T00:20:00;7.50;7.00;6.00
76784;PMS7003;66893;44.316;0.092;2023-05-29T00:22:28;8.50;8.50;6.50
76784;PMS7003;66893;44.316;0.092;2023-05-29T00:24:54;7.75;6.00;4.75
76784;PMS7003;66893;44.316;0.092;2023-05-29T00:27:19;7.00;6.50;5.00
76784;PMS7003;66893;44.316;0.092;2023-05-29T00:29:45;7.00;6.75;5.00
76784;PMS7003;66893;44.316;0.092;2023-05-29T00:32:10;10.00;7.75;6.00
76784;PMS7003;66893;44.316;0.092;2023-05-29T00:34:36;9.00;8.00;6.00
76784;PMS7003;66893;44.316;0.092;2023-05-29T00:37:01;9.00;7.00;6.00
76784;PMS7003;66893;44.316;0.092;2023-05-29T00:39:27;7.00;7.00;6.00
76784;PMS7003;66893;44.316;0.092;2023-05-29T00:41:53;8.25;8.00;6.25
76784;PMS7003;66893;44.316;0.092;2023-05-29T00:44:19;8.75;8.25;6.25
76784;PMS7003;66893;44.316;0.092;2023-05-29T00:46:46;8.00;8.00;6.50
76784;PMS7003;66893;44.316;0.092;2023-05-29T00:49:13;7.25;6.00;5.25
76784;PMS7003;66893;44.316;0.092;2023-05-29T00:51:39;8.00;8.00;6.00
76784;PMS7003;66893;44.316;0.092;2023-05-29T00:54:09;7.75;7.75;5.50
76784;PMS7003;66893;44.316;0.092;2023-05-29T00:56:40;7.50;7.50;6.00
76784;PMS7003;66893;44.316;0.092;2023-05-29T00:59:09;10.00;10.00;7.00
76784;PMS7003;66893;44.316;0.092;2023-05-29T01:01:37;11.75;8.00;5.50
76784;PMS7003;66893;44.316;0.092;2023-05-29T01:04:04;8.75;8.75;6.00
76784;PMS7003;66893;44.316;0.092;2023-05-29T01:06:34;11.00;8.00;7.00
76784;PMS7003;66893;44.316;0.092;2023-05-29T01:09:00;10.25;7.75;6.50
76784;PMS7003;66893;44.316;0.092;2023-05-29T01:14:23;7.75;7.25;6.50
76784;PMS7003;66893;44.316;0.092;2023-05-29T01:27:37;6.75;6.00;4.75
76784;PMS7003;66893;44.316;0.092;2023-05-29T01:30:05;6.00;6.00;5.00
76784;PMS7003;66893;44.316;0.092;2023-05-29T01:32:33;7.25;7.25;6.25
76784;PMS7003;66893;44.316;0.092;2023-05-29T01:34:59;9.75;8.25;6.75
76784;PMS7003;66893;44.316;0.092;2023-05-29T01:37:24;9.50;8.00;6.75
76784;PMS7003;66893;44.316;0.092;2023-05-29T01:39:50;9.75;9.75;7.50
76784;PMS7003;66893;44.316;0.092;2023-05-29T01:42:16;9.50;6.75;5.00
76784;PMS7003;66893;44.316;0.092;2023-05-29T01:44:41;7.75;7.75;5.50
76784;PMS7003;66893;44.316;0.092;2023-05-29T01:47:07;7.75;7.75;5.00
76784;PMS7003;66893;44.316;0.092;2023-05-29T01:49:33;10.00;8.00;6.25
76784;PMS7003;66893;44.316;0.092;2023-05-29T01:52:01;6.75;6.00;5.00
76784;PMS7003;66893;44.316;0.092;2023-05-29T01:54:27;9.00;8.00;7.00
76784;PMS7003;66893;44.316;0.092;2023-05-29T01:56:52;9.50;7.75;6.00
76784;PMS7003;66893;44.316;0.092;2023-05-29T01:59:18;6.75;6.00;5.00
76784;PMS7003;66893;44.316;0.092;2023-05-29T02:01:44;10.50;8.00;6.00
76784;PMS7003;66893;44.316;0.092;2023-05-29T02:04:10;11.25;9.50;7.75
76784;PMS7003;66893;44.316;0.092;2023-05-29T02:06:35;10.00;8.00;7.00
76784;PMS7003;66893;44.316;0.092;2023-05-29T02:09:01;9.00;9.00;7.00
76784;PMS7003;66893;44.316;0.092;2023-05-29T02:11:28;7.75;6.25;5.50
76784;PMS7003;66893;44.316;0.092;2023-05-29T02:13:53;9.75;7.25;6.25
76784;PMS7003;66893;44.316;0.092;2023-05-29T02:16:19;10.50;7.00;5.50
76784;PMS7003;66893;44.316;0.092;2023-05-29T02:18:45;8.25;7.25;5.50
76784;PMS7003;66893;44.316;0.092;2023-05-29T02:21:13;8.00;5.25;5.00
76784;PMS7003;66893;44.316;0.092;2023-05-29T02:23:39;9.25;9.25;7.00
76784;PMS7003;66893;44.316;0.092;2023-05-29T02:26:05;8.75;6.75;5.00
76784;PMS7003;66893;44.316;0.092;2023-05-29T02:28:30;9.25;7.00;6.00
76784;PMS7003;66893;44.316;0.092;2023-05-29T02:30:56;6.50;6.50;5.50
76784;PMS7003;66893;44.316;0.092;2023-05-29T02:33:21;7.00;7.00;6.00
76784;PMS7003;66893;44.316;0.092;2023-05-29T02:35:47;9.50;9.00;6.25
76784;PMS7003;66893;44.316;0.092;2023-05-29T02:38:12;8.00;6.25;5.75
76784;PMS7003;66893;44.316;0.092;2023-05-29T02:40:38;10.75;8.00;6.25
76784;PMS7003;66893;44.316;0.092;2023-05-29T02:43:05;8.25;8.00;6.00
76784;PMS7003;66893;44.316;0.092;2023-05-29T02:45:31;9.00;8.50;6.00
76784;PMS7003;66893;44.316;0.092;2023-05-29T02:47:56;7.00;7.00;6.00
76784;PMS7003;66893;44.316;0.092;2023-05-29T02:50:22;10.25;8.00;6.25
76784;PMS7003;66893;44.316;0.092;2023-05-29T02:52:47;9.00;8.00;6.00
76784;PMS7003;66893;44.316;0.092;2023-05-29T02:55:12;8.50;8.50;5.75
76784;PMS7003;66893;44.316;0.092;2023-05-29T02:57:38;9.00;9.00;7.00
76784;PMS7003;66893;44.316;0.092;2023-05-29T03:00:04;10.00;10.00;7.00
76784;PMS7003;66893;44.316;0.092;2023-05-29T03:02:31;9.00;7.50;6.75
76784;PMS7003;66893;44.316;0.092;2023-05-29T03:04:56;10.00;9.00;7.00
76784;PMS7003;66893;44.316;0.092;2023-05-29T03:07:22;8.00;6.50;6.25
76784;PMS7003;66893;44.316;0.092;2023-05-29T03:09:47;11.25;9.00;6.75
76784;PMS7003;66893;44.316;0.092;2023-05-29T03:12:13;11.50;9.00;8.00
76784;PMS7003;66893;44.316;0.092;2023-05-29T03:14:38;8.00;7.00;6.00
76784;PMS7003;66893;44.316;0.092;2023-05-29T03:17:04;9.00;8.75;6.75
76784;PMS7003;66893;44.316;0.092;2023-05-29T03:19:31;12.00;10.50;8.25
76784;PMS7003;66893;44.316;0.092;2023-05-29T03:21:56;9.00;9.00;6.75
76784;PMS7003;66893;44.316;0.092;2023-05-29T03:24:21;9.00;9.00;6.75
76784;PMS7003;66893;44.316;0.092;2023-05-29T03:26:48;9.00;7.25;6.00
76784;PMS7003;66893;44.316;0.092;2023-05-29T03:29:14;9.00;8.75;7.00
76784;PMS7003;66893;44.316;0.092;2023-05-29T03:31:41;8.75;8.75;7.50
76784;PMS7003;66893;44.316;0.092;2023-05-29T03:34:07;9.50;9.50;7.00
76784;PMS7003;66893;44.316;0.092;2023-05-29T03:36:32;10.50;10.50;7.75
76784;PMS7003;66893;44.316;0.092;2023-05-29T03:38:58;11.00;8.75;7.00
76784;PMS7003;66893;44.316;0.092;2023-05-29T03:41:23;9.25;9.25;7.00
76784;PMS7003;66893;44.316;0.092;2023-05-29T03:43:50;12.75;10.75;8.00
76784;PMS7003;66893;44.316;0.092;2023-05-29T03:46:16;12.75;9.50;6.00
76784;PMS7003;66893;44.316;0.092;2023-05-29T03:48:41;11.25;10.00;7.00
76784;PMS7003;66893;44.316;0.092;2023-05-29T03:51:06;8.75;8.75;7.00
76784;PMS7003;66893;44.316;0.092;2023-05-29T03:53:32;10.50;8.75;6.50
76784;PMS7003;66893;44.316;0.092;2023-05-29T03:55:57;9.00;8.75;6.25
76784;PMS7003;66893;44.316;0.092;2023-05-29T03:58:23;12.75;9.00;7.25
76784;PMS7003;66893;44.316;0.092;2023-05-29T04:00:48;9.00;9.00;7.00
76784;PMS7003;66893;44.316;0.092;2023-05-29T04:03:14;9.50;8.75;7.75
76784;PMS7003;66893;44.316;0.092;2023-05-29T04:05:40;8.50;8.25;6.50
76784;PMS7003;66893;44.316;0.092;2023-05-29T04:08:05;10.00;10.00;7.50
76784;PMS7003;66893;44.316;0.092;2023-05-29T04:10:33;8.25;8.00;6.75
76784;PMS7003;66893;44.316;0.092;2023-05-29T04:12:59;12.00;9.25;7.50
76784;PMS7003;66893;44.316;0.092;2023-05-29T04:15:26;8.25;8.25;6.50
76784;PMS7003;66893;44.316;0.092;2023-05-29T04:17:52;11.50;11.50;9.25
76784;PMS7003;66893;44.316;0.092;2023-05-29T04:20:17;14.00;11.00;8.00
76784;PMS7003;66893;44.316;0.092;2023-05-29T04:22:43;10.50;10.25;8.50
76784;PMS7003;66893;44.316;0.092;2023-05-29T04:25:08;10.00;9.25;7.75
76784;PMS7003;66893;44.316;0.092;2023-05-29T04:27:33;15.00;12.00;9.75
76784;PMS7003;66893;44.316;0.092;2023-05-29T04:30:05;11.25;10.75;7.00
76784;PMS7003;66893;44.316;0.092;2023-05-29T04:32:31;11.75;10.25;8.50
76784;PMS7003;66893;44.316;0.092;2023-05-29T04:34:58;11.50;9.25;7.50
76784;PMS7003;66893;44.316;0.092;2023-05-29T04:37:27;11.25;10.75;8.00
76784;PMS7003;66893;44.316;0.092;2023-05-29T04:39:56;11.25;10.50;8.25
76784;PMS7003;66893;44.316;0.092;2023-05-29T04:42:24;9.50;9.50;8.00
76784;PMS7003;66893;44.316;0.092;2023-05-29T04:44:53;15.25;11.75;8.75
76784;PMS7003;66893;44.316;0.092;2023-05-29T04:47:19;12.75;11.50;8.75
76784;PMS7003;66893;44.316;0.092;2023-05-29T04:49:44;13.00;11.50;9.00
76784;PMS7003;66893;44.316;0.092;2023-05-29T04:52:15;13.75;12.50;8.00
76784;PMS7003;66893;44.316;0.092;2023-05-29T04:54:41;12.25;10.00;8.50
76784;PMS7003;66893;44.316;0.092;2023-05-29T04:57:06;11.25;9.25;8.00
76784;PMS7003;66893;44.316;0.092;2023-05-29T04:59:33;10.00;9.50;6.25
76784;PMS7003;66893;44.316;0.092;2023-05-29T05:01:59;10.75;10.00;8.00
76784;PMS7003;66893;44.316;0.092;2023-05-29T05:04:24;10.75;10.00;9.00
76784;PMS7003;66893;44.316;0.092;2023-05-29T05:06:50;12.00;10.75;8.75
76784;PMS7003;66893;44.316;0.092;2023-05-29T05:09:16;10.00;10.00;7.50
76784;PMS7003;66893;44.316;0.092;2023-05-29T05:11:42;10.50;10.50;9.00
76784;PMS7003;66893;44.316;0.092;2023-05-29T05:14:08;11.50;11.25;8.00
76784;PMS7003;66893;44.316;0.092;2023-05-29T05:16:33;13.50;13.25;8.50
76784;PMS7003;66893;44.316;0.092;2023-05-29T05:18:59;12.00;11.00;8.00
76784;PMS7003;66893;44.316;0.092;2023-05-29T05:21:24;9.50;9.50;8.50
76784;PMS7003;66893;44.316;0.092;2023-05-29T05:23:50;11.50;11.50;8.00
76784;PMS7003;66893;44.316;0.092;2023-05-29T05:26:15;12.25;9.50;7.00
76784;PMS7003;66893;44.316;0.092;2023-05-29T05:28:40;8.50;7.00;5.50
76784;PMS7003;66893;44.316;0.092;2023-05-29T05:31:06;9.75;8.25;7.25
76784;PMS7003;66893;44.316;0.092;2023-05-29T05:33:31;13.25;12.25;9.00
76784;PMS7003;66893;44.316;0.092;2023-05-29T05:35:57;12.25;10.50;9.00
76784;PMS7003;66893;44.316;0.092;2023-05-29T05:38:22;12.25;10.75;8.50
76784;PMS7003;66893;44.316;0.092;2023-05-29T05:40:48;13.00;10.75;9.00
76784;PMS7003;66893;44.316;0.092;2023-05-29T05:43:13;16.00;13.75;10.00
76784;PMS7003;66893;44.316;0.092;2023-05-29T05:45:38;16.25;14.75;11.25
76784;PMS7003;66893;44.316;0.092;2023-05-29T05:48:07;20.00;14.75;10.75
76784;PMS7003;66893;44.316;0.092;2023-05-29T05:50:33;12.75;11.25;9.50
76784;PMS7003;66893;44.316;0.092;2023-05-29T05:52:59;16.50;15.50;10.75
76784;PMS7003;66893;44.316;0.092;2023-05-29T05:55:24;15.25;15.25;11.25
76784;PMS7003;66893;44.316;0.092;2023-05-29T05:57:51;14.50;13.75;10.00
76784;PMS7003;66893;44.316;0.092;2023-05-29T06:00:17;15.50;12.75;8.50
76784;PMS7003;66893;44.316;0.092;2023-05-29T06:02:43;11.75;11.50;9.00
76784;PMS7003;66893;44.316;0.092;2023-05-29T06:05:10;15.25;14.50;10.25
76784;PMS7003;66893;44.316;0.092;2023-05-29T06:07:36;16.50;15.50;10.75
76784;PMS7003;66893;44.316;0.092;2023-05-29T06:10:02;14.50;12.75;9.50
76784;PMS7003;66893;44.316;0.092;2023-05-29T06:12:29;15.00;12.75;8.50
76784;PMS7003;66893;44.316;0.092;2023-05-29T06:14:54;18.00;13.25;10.75
76784;PMS7003;66893;44.316;0.092;2023-05-29T06:17:20;15.75;15.75;11.00
76784;PMS7003;66893;44.316;0.092;2023-05-29T06:19:46;18.50;14.75;11.00
76784;PMS7003;66893;44.316;0.092;2023-05-29T06:22:12;21.25;15.50;12.50
76784;PMS7003;66893;44.316;0.092;2023-05-29T06:24:39;21.50;18.25;11.75
76784;PMS7003;66893;44.316;0.092;2023-05-29T06:27:04;20.75;15.00;10.25
76784;PMS7003;66893;44.316;0.092;2023-05-29T06:29:31;21.75;20.50;12.75
76784;PMS7003;66893;44.316;0.092;2023-05-29T06:31:57;18.25;16.75;11.50
76784;PMS7003;66893;44.316;0.092;2023-05-29T06:34:23;22.00;19.50;12.75
76784;PMS7003;66893;44.316;0.092;2023-05-29T06:36:48;21.25;17.75;12.25
76784;PMS7003;66893;44.316;0.092;2023-05-29T06:39:13;19.25;15.75;11.25
76784;PMS7003;66893;44.316;0.092;2023-05-29T06:41:40;22.50;18.50;12.25
76784;PMS7003;66893;44.316;0.092;2023-05-29T06:44:05;22.00;19.50;14.25
76784;PMS7003;66893;44.316;0.092;2023-05-29T06:46:31;22.00;21.00;12.25
76784;PMS7003;66893;44.316;0.092;2023-05-29T06:48:56;20.50;18.25;14.50
76784;PMS7003;66893;44.316;0.092;2023-05-29T06:51:22;24.50;21.50;15.25
76784;PMS7003;66893;44.316;0.092;2023-05-29T06:53:47;19.75;18.75;13.25
76784;PMS7003;66893;44.316;0.092;2023-05-29T06:56:13;21.75;17.25;12.75
76784;PMS7003;66893;44.316;0.092;2023-05-29T06:58:38;17.25;13.75;11.75
76784;PMS7003;66893;44.316;0.092;2023-05-29T07:01:04;18.75;17.75;12.50
76784;PMS7003;66893;44.316;0.092;2023-05-29T07:03:30;20.25;18.75;13.25
76784;PMS7003;66893;44.316;0.092;2023-05-29T07:05:55;18.50;18.50;12.50
76784;PMS7003;66893;44.316;0.092;2023-05-29T07:08:22;24.00;18.75;13.75
76784;PMS7003;66893;44.316;0.092;2023-05-29T07:10:48;21.50;18.25;13.75
76784;PMS7003;66893;44.316;0.092;2023-05-29T07:13:17;26.00;22.75;13.00
76784;PMS7003;66893;44.316;0.092;2023-05-29T07:15:43;25.00;22.50;15.50
76784;PMS7003;66893;44.316;0.092;2023-05-29T07:18:09;24.50;22.50;14.25
76784;PMS7003;66893;44.316;0.092;2023-05-29T07:20:35;25.25;23.75;15.00
76784;PMS7003;66893;44.316;0.092;2023-05-29T07:23:01;26.50;24.25;15.25
76784;PMS7003;66893;44.316;0.092;2023-05-29T07:25:27;27.75;23.50;15.50
76784;PMS7003;66893;44.316;0.092;2023-05-29T07:27:52;26.75;18.75;14.75
76784;PMS7003;66893;44.316;0.092;2023-05-29T07:30:18;27.25;23.75;14.25
76784;PMS7003;66893;44.316;0.092;2023-05-29T07:32:44;26.00;22.00;13.75
76784;PMS7003;66893;44.316;0.092;2023-05-29T07:35:10;24.00;21.50;15.25
76784;PMS7003;66893;44.316;0.092;2023-05-29T07:37:35;27.00;24.50;15.75
76784;PMS7003;66893;44.316;0.092;2023-05-29T07:40:01;28.75;28.50;17.00
76784;PMS7003;66893;44.316;0.092;2023-05-29T07:42:28;31.00;25.75;15.25
76784;PMS7003;66893;44.316;0.092;2023-05-29T07:44:54;26.00;21.25;15.25
76784;PMS7003;66893;44.316;0.092;2023-05-29T07:47:19;28.00;24.50;15.75
76784;PMS7003;66893;44.316;0.092;2023-05-29T07:49:45;23.75;22.25;15.00
76784;PMS7003;66893;44.316;0.092;2023-05-29T07:52:10;27.75;23.50;15.00
76784;PMS7003;66893;44.316;0.092;2023-05-29T07:54:36;22.50;21.50;14.50
76784;PMS7003;66893;44.316;0.092;2023-05-29T07:57:01;28.25;23.00;16.50
76784;PMS7003;66893;44.316;0.092;2023-05-29T07:59:35;26.75;22.75;15.25
76784;PMS7003;66893;44.316;0.092;2023-05-29T08:02:00;26.75;25.00;15.25
76784;PMS7003;66893;44.316;0.092;2023-05-29T08:04:28;24.75;21.75;16.25
76784;PMS7003;66893;44.316;0.092;2023-05-29T08:06:53;16.75;16.75;11.25
76784;PMS7003;66893;44.316;0.092;2023-05-29T08:09:19;27.25;25.25;16.00
76784;PMS7003;66893;44.316;0.092;2023-05-29T08:11:45;22.25;21.50;14.75
76784;PMS7003;66893;44.316;0.092;2023-05-29T08:14:11;24.50;21.50;13.50
76784;PMS7003;66893;44.316;0.092;2023-05-29T08:16:37;22.25;21.50;15.00
76784;PMS7003;66893;44.316;0.092;2023-05-29T08:19:03;22.75;21.75;15.25
76784;PMS7003;66893;44.316;0.092;2023-05-29T08:21:29;24.50;19.00;15.00
76784;PMS7003;66893;44.316;0.092;2023-05-29T08:23:56;21.50;21.50;14.00
76784;PMS7003;66893;44.316;0.092;2023-05-29T08:26:22;24.25;21.50;14.00
76784;PMS7003;66893;44.316;0.092;2023-05-29T08:28:48;22.00;19.00;15.25
76784;PMS7003;66893;44.316;0.092;2023-05-29T08:31:13;23.25;23.25;14.50
76784;PMS7003;66893;44.316;0.092;2023-05-29T08:33:38;20.00;19.75;13.50
76784;PMS7003;66893;44.316;0.092;2023-05-29T08:36:05;24.00;22.75;15.25
76784;PMS7003;66893;44.316;0.092;2023-05-29T08:38:30;17.25;17.25;14.00
76784;PMS7003;66893;44.316;0.092;2023-05-29T08:40:57;17.25;16.00;13.00
76784;PMS7003;66893;44.316;0.092;2023-05-29T08:43:23;18.00;17.00;12.25
76784;PMS7003;66893;44.316;0.092;2023-05-29T08:45:53;19.00;19.00;15.00
76784;PMS7003;66893;44.316;0.092;2023-05-29T08:48:23;25.75;19.75;13.00
76784;PMS7003;66893;44.316;0.092;2023-05-29T08:50:52;20.25;19.25;13.25
76784;PMS7003;66893;44.316;0.092;2023-05-29T08:53:20;22.00;22.00;13.75
76784;PMS7003;66893;44.316;0.092;2023-05-29T08:55:50;24.25;23.00;15.00
76784;PMS7003;66893;44.316;0.092;2023-05-29T08:58:17;22.50;18.75;12.75
76784;PMS7003;66893;44.316;0.092;2023-05-29T09:00:46;22.25;17.50;12.75
76784;PMS7003;66893;44.316;0.092;2023-05-29T09:03:12;19.00;18.00;13.00
76784;PMS7003;66893;44.316;0.092;2023-05-29T09:05:39;23.50;20.00;13.50
76784;PMS7003;66893;44.316;0.092;2023-05-29T09:08:08;15.75;15.00;10.75
76784;PMS7003;66893;44.316;0.092;2023-05-29T09:10:34;16.25;16.25;11.75
76784;PMS7003;66893;44.316;0.092;2023-05-29T09:13:00;19.00;15.75;11.50
76784;PMS7003;66893;44.316;0.092;2023-05-29T09:15:26;17.00;16.25;12.25
76784;PMS7003;66893;44.316;0.092;2023-05-29T09:17:52;15.00;14.25;11.00
76784;PMS7003;66893;44.316;0.092;2023-05-29T09:20:20;18.00;15.00;11.25
76784;PMS7003;66893;44.316;0.092;2023-05-29T09:22:52;15.00;15.00;11.50
76784;PMS7003;66893;44.316;0.092;2023-05-29T09:25:25;15.00;12.75;10.00
76784;PMS7003;66893;44.316;0.092;2023-05-29T09:27:55;16.00;16.00;12.25
76784;PMS7003;66893;44.316;0.092;2023-05-29T09:30:34;14.50;13.25;11.00
76784;PMS7003;66893;44.316;0.092;2023-05-29T09:33:00;25.50;17.50;12.00
76784;PMS7003;66893;44.316;0.092;2023-05-29T09:35:26;16.50;15.00;11.25
76784;PMS7003;66893;44.316;0.092;2023-05-29T09:37:57;16.25;15.00;10.00
76784;PMS7003;66893;44.316;0.092;2023-05-29T09:40:22;16.50;13.50;10.50
76784;PMS7003;66893;44.316;0.092;2023-05-29T09:42:48;12.75;12.25;9.50
76784;PMS7003;66893;44.316;0.092;2023-05-29T09:45:16;13.25;13.25;10.25
76784;PMS7003;66893;44.316;0.092;2023-05-29T09:47:42;14.50;13.50;11.50
76784;PMS7003;66893;44.316;0.092;2023-05-29T09:50:17;12.75;11.50;9.00
76784;PMS7003;66893;44.316;0.092;2023-05-29T09:52:45;15.75;15.75;10.25
76784;PMS7003;66893;44.316;0.092;2023-05-29T09:55:13;11.75;11.50;9.25
76784;PMS7003;66893;44.316;0.092;2023-05-29T09:57:44;28.00;25.00;18.00
76784;PMS7003;66893;44.316;0.092;2023-05-29T10:00:11;20.75;18.50;13.75
76784;PMS7003;66893;44.316;0.092;2023-05-29T10:02:38;15.50;13.75;11.00
76784;PMS7003;66893;44.316;0.092;2023-05-29T10:05:05;29.25;26.75;19.25
76784;PMS7003;66893;44.316;0.092;2023-05-29T10:07:34;22.75;20.50;16.25
76784;PMS7003;66893;44.316;0.092;2023-05-29T10:10:04;19.00;17.25;13.50
76784;PMS7003;66893;44.316;0.092;2023-05-29T10:12:34;20.00;17.75;14.50
76784;PMS7003;66893;44.316;0.092;2023-05-29T10:15:03;21.75;18.75;13.25
76784;PMS7003;66893;44.316;0.092;2023-05-29T10:17:35;18.00;17.75;13.75
76784;PMS7003;66893;44.316;0.092;2023-05-29T10:20:04;27.50;21.75;17.00
76784;PMS7003;66893;44.316;0.092;2023-05-29T10:22:35;20.75;16.25;12.00
76784;PMS7003;66893;44.316;0.092;2023-05-29T10:25:06;17.75;17.50;14.50
76784;PMS7003;66893;44.316;0.092;2023-05-29T10:27:34;19.75;19.25;13.50
76784;PMS7003;66893;44.316;0.092;2023-05-29T10:31:03;18.00;18.00;13.75
76784;PMS7003;66893;44.316;0.092;2023-05-29T10:36:20;21.50;19.25;14.00
76784;PMS7003;66893;44.316;0.092;2023-05-29T10:38:49;19.75;18.75;13.50
76784;PMS7003;66893;44.316;0.092;2023-05-29T10:43:56;32.75;22.75;14.25
76784;PMS7003;66893;44.316;0.092;2023-05-29T10:49:15;12.50;12.00;9.25
76784;PMS7003;66893;44.316;0.092;2023-05-29T10:51:50;16.50;14.75;10.75
76784;PMS7003;66893;44.316;0.092;2023-05-29T10:54:16;15.25;15.25;11.50
76784;PMS7003;66893;44.316;0.092;2023-05-29T10:56:56;20.75;16.00;11.50
76784;PMS7003;66893;44.316;0.092;2023-05-29T10:59:23;16.50;16.00;12.00
76784;PMS7003;66893;44.316;0.092;2023-05-29T11:01:52;14.25;11.25;9.00
76784;PMS7003;66893;44.316;0.092;2023-05-29T11:06:47;14.75;14.50;11.25
76784;PMS7003;66893;44.316;0.092;2023-05-29T11:14:53;15.25;15.25;10.50
76784;PMS7003;66893;44.316;0.092;2023-05-29T11:17:48;19.25;15.25;11.25
76784;PMS7003;66893;44.316;0.092;2023-05-29T11:23:01;16.50;13.25;11.00
76784;PMS7003;66893;44.316;0.092;2023-05-29T11:25:29;16.25;14.00;9.75
76784;PMS7003;66893;44.316;0.092;2023-05-29T11:27:58;15.00;14.00;10.25
76784;PMS7003;66893;44.316;0.092;2023-05-29T11:30:23;18.50;16.50;11.00
76784;PMS7003;66893;44.316;0.092;2023-05-29T11:32:49;21.50;16.25;10.75
76784;PMS7003;66893;44.316;0.092;2023-05-29T11:35:15;14.50;12.25;9.00
76784;PMS7003;66893;44.316;0.092;2023-05-29T11:37:44;16.50;16.25;10.50
76784;PMS7003;66893;44.316;0.092;2023-05-29T11:40:12;14.25;13.75;9.50
76784;PMS7003;66893;44.316;0.092;2023-05-29T11:42:42;17.75;12.25;9.75
76784;PMS7003;66893;44.316;0.092;2023-05-29T11:45:15;13.75;13.00;9.00
76784;PMS7003;66893;44.316;0.092;2023-05-29T11:50:25;13.75;13.75;10.00
76784;PMS7003;66893;44.316;0.092;2023-05-29T11:52:56;14.75;12.75;10.75
76784;PMS7003;66893;44.316;0.092;2023-05-29T11:55:22;13.25;13.25;10.00
76784;PMS7003;66893;44.316;0.092;2023-05-29T11:57:50;13.50;11.00;9.75
76784;PMS7003;66893;44.316;0.092;2023-05-29T12:00:20;12.75;10.75;7.00
76784;PMS7003;66893;44.316;0.092;2023-05-29T12:02:47;12.00;11.50;8.00
76784;PMS7003;66893;44.316;0.092;2023-05-29T12:05:13;10.00;10.00;7.50
76784;PMS7003;66893;44.316;0.092;2023-05-29T12:07:47;13.00;12.75;8.25
76784;PMS7003;66893;44.316;0.092;2023-05-29T12:10:18;10.25;8.75;7.25
76784;PMS7003;66893;44.316;0.092;2023-05-29T12:13:03;12.00;9.00;8.00
76784;PMS7003;66893;44.316;0.092;2023-05-29T12:15:28;14.25;12.75;8.25
76784;PMS7003;66893;44.316;0.092;2023-05-29T12:17:54;15.00;10.50;9.25
76784;PMS7003;66893;44.316;0.092;2023-05-29T12:20:25;10.25;9.50;7.25
76784;PMS7003;66893;44.316;0.092;2023-05-29T12:22:54;10.75;10.00;9.00
76784;PMS7003;66893;44.316;0.092;2023-05-29T12:25:26;9.50;9.25;7.25
76784;PMS7003;66893;44.316;0.092;2023-05-29T12:27:51;9.75;9.75;7.50
76784;PMS7003;66893;44.316;0.092;2023-05-29T12:30:21;9.50;9.50;7.00
76784;PMS7003;66893;44.316;0.092;2023-05-29T12:32:48;12.25;12.25;9.75
76784;PMS7003;66893;44.316;0.092;2023-05-29T12:35:16;13.50;12.00;8.25
76784;PMS7003;66893;44.316;0.092;2023-05-29T12:37:43;10.00;9.00;7.25
76784;PMS7003;66893;44.316;0.092;2023-05-29T12:40:11;8.00;7.25;6.25
76784;PMS7003;66893;44.316;0.092;2023-05-29T12:42:40;10.25;10.00;8.25
76784;PMS7003;66893;44.316;0.092;2023-05-29T12:45:06;16.25;10.50;7.75
76784;PMS7003;66893;44.316;0.092;2023-05-29T12:47:33;11.75;8.25;6.50
76784;PMS7003;66893;44.316;0.092;2023-05-29T12:49:59;12.25;10.00;8.25
76784;PMS7003;66893;44.316;0.092;2023-05-29T12:52:29;12.00;9.75;7.50
76784;PMS7003;66893;44.316;0.092;2023-05-29T12:54:54;10.00;8.75;7.00
76784;PMS7003;66893;44.316;0.092;2023-05-29T12:57:20;13.50;12.00;8.00
76784;PMS7003;66893;44.316;0.092;2023-05-29T12:59:45;10.50;10.25;7.50
76784;PMS7003;66893;44.316;0.092;2023-05-29T13:02:11;11.50;11.50;8.00
76784;PMS7003;66893;44.316;0.092;2023-05-29T13:04:36;10.50;10.00;7.25
76784;PMS7003;66893;44.316;0.092;2023-05-29T13:07:02;9.00;8.00;6.50
76784;PMS7003;66893;44.316;0.092;2023-05-29T13:09:27;8.50;8.50;6.00
76784;PMS7003;66893;44.316;0.092;2023-05-29T13:11:53;10.50;10.00;8.00
76784;PMS7003;66893;44.316;0.092;2023-05-29T13:14:18;11.00;10.75;8.00
76784;PMS7003;66893;44.316;0.092;2023-05-29T13:16:44;9.75;9.00;7.00
76784;PMS7003;66893;44.316;0.092;2023-05-29T13:19:09;11.75;9.50;7.00
76784;PMS7003;66893;44.316;0.092;2023-05-29T13:21:35;11.25;10.75;7.25
76784;PMS7003;66893;44.316;0.092;2023-05-29T13:24:00;11.75;10.00;7.75
76784;PMS7003;66893;44.316;0.092;2023-05-29T13:26:26;7.75;7.75;5.50
76784;PMS7003;66893;44.316;0.092;2023-05-29T13:28:51;8.00;7.00;6.00
76784;PMS7003;66893;44.316;0.092;2023-05-29T13:31:17;8.25;8.25;5.75
76784;PMS7003;66893;44.316;0.092;2023-05-29T13:33:43;8.00;8.00;6.00
76784;PMS7003;66893;44.316;0.092;2023-05-29T13:36:08;9.00;9.00;6.00
76784;PMS7003;66893;44.316;0.092;2023-05-29T13:38:34;8.00;8.00;6.00
76784;PMS7003;66893;44.316;0.092;2023-05-29T13:40:59;7.00;7.00;6.00
76784;PMS7003;66893;44.316;0.092;2023-05-29T13:43:25;9.00;9.00;6.50
76784;PMS7003;66893;44.316;0.092;2023-05-29T13:45:50;8.75;8.75;7.00
76784;PMS7003;66893;44.316;0.092;2023-05-29T13:48:15;9.25;9.00;7.00
76784;PMS7003;66893;44.316;0.092;2023-05-29T13:50:41;8.00;7.00;5.75
76784;PMS7003;66893;44.316;0.092;2023-05-29T13:53:06;8.50;8.00;6.50
76784;PMS7003;66893;44.316;0.092;2023-05-29T13:55:32;7.75;7.50;6.00
76784;PMS7003;66893;44.316;0.092;2023-05-29T13:57:57;9.25;8.25;6.00
76784;PMS7003;66893;44.316;0.092;2023-05-29T14:00:23;8.25;7.75;6.00
76784;PMS7003;66893;44.316;0.092;2023-05-29T14:02:48;11.25;9.50;8.00
76784;PMS7003;66893;44.316;0.092;2023-05-29T14:05:14;8.00;7.25;6.25
76784;PMS7003;66893;44.316;0.092;2023-05-29T14:07:39;9.75;8.75;6.50
76784;PMS7003;66893;44.316;0.092;2023-05-29T14:10:05;7.75;7.75;5.75
76784;PMS7003;66893;44.316;0.092;2023-05-29T14:12:30;5.50;5.00;4.00
76784;PMS7003;66893;44.316;0.092;2023-05-29T14:14:56;8.75;8.25;6.00
76784;PMS7003;66893;44.316;0.092;2023-05-29T14:17:21;9.75;8.25;6.50
76784;PMS7003;66893;44.316;0.092;2023-05-29T14:19:47;9.00;9.00;6.00
76784;PMS7003;66893;44.316;0.092;2023-05-29T14:22:12;9.75;9.75;7.00
76784;PMS7003;66893;44.316;0.092;2023-05-29T14:24:38;8.75;7.25;5.50
76784;PMS7003;66893;44.316;0.092;2023-05-29T14:27:04;5.75;5.50;4.50
76784;PMS7003;66893;44.316;0.092;2023-05-29T14:29:30;10.00;7.25;5.50
76784;PMS7003;66893;44.316;0.092;2023-05-29T14:31:56;9.00;8.75;6.00
76784;PMS7003;66893;44.316;0.092;2023-05-29T14:34:21;9.00;7.50;6.00